Informes de METAR cercanos

 

LEXJ - Santander/Parayas, Spain
Distance from station: ESE 6km
Actualización: 08/05/2021 02:00
Despejado
Despejado
 Viento del SE
Viento: SE 7 km/h
Temperatura: 15°C
Rocío: 11°C
Humedad: 77%
Barómetro: 1016 hPa
Resumen: Despejado
Visibility: greater than 10 km
2021/05/08 00:00 LEXJ 080000Z AUTO 13004KT 100V180 CAVOK 15/11 Q1016
LEBB - Bilbao/Sondica, Spain
Distance from station: ESE 80km
Actualización: 08/05/2021 02:00
Despejado
Despejado
 Viento del E
Viento: E 6 km/h
Temperatura: 14°C
Rocío: 11°C
Humedad: 82%
Barómetro: 1017 hPa
Resumen: Despejado
Visibility: greater than 10 km
2021/05/08 00:00 LEBB 080000Z AUTO 08003KT CAVOK 14/11 Q1017
 
LEBL - Barcelona Airpor, Spain
Distance from station: ESE 726km
Actualización: 08/05/2021 02:00
Few Clouds
Few Clouds
 Viento del NNO
Viento: NNO 7 km/h
Temperatura: 15°C
Rocío: 13°C
Humedad: 88%
Barómetro: 1020 hPa
Clouds: Few Clouds
Visibility: 10 km
Cloud details: Few Clouds 610 m
2021/05/08 00:00 LEBL 080000Z 33004KT 9999 FEW020 15/13 Q1020 NOSIG
LEMD - Madrid/Barajas, Spain
Distance from station: S 325km
Actualización: 08/05/2021 02:00
Despejado
Despejado
 Viento del ESE
Viento: ESE 6 km/h
Temperatura: 16°C
Rocío: 7°C
Humedad: 55%
Barómetro: 1018 hPa
Resumen: Despejado
Visibility: greater than 10 km
2021/05/08 00:00 LEMD 080000Z 11003KT 040V140 CAVOK 16/07 Q1018 NOSIG
 
LPPT - Lisbon/Portela, Portugal
Distance from station: SO 663km
Actualización: 08/05/2021 02:00
Despejado
Despejado
 Viento del NO
Viento: NO 19 km/h
Temperatura: 15°C
Rocío: 12°C
Humedad: 82%
Barómetro: 1017 hPa
Resumen: Despejado
Visibility: greater than 10 km
2021/05/08 00:00 LPPT 080000Z 31010KT CAVOK 15/12 Q1017
LECO - La Coruna/Alvedr, Spain
Distance from station: O 349km
Actualización: 08/05/2021 02:00
Despejado
Despejado
 Viento del SE
Viento: SE 13 km/h
Temperatura: 13°C
Rocío: 12°C
Humedad: 94%
Barómetro: 1016 hPa
Resumen: Despejado
Visibility: greater than 10 km
2021/05/08 00:00 LECO 080000Z AUTO 13007KT 100V200 CAVOK 13/12 Q1016
 
LEST - Santiago/Labacol, Spain
Distance from station: O 358km
Actualización: 08/05/2021 02:00
Cubierto
Cubierto
 Viento del SSO
Viento: SSO 13 km/h
Temperatura: 12°C
Rocío: 11°C
Humedad: 94%
Barómetro: 1017 hPa
Clouds: Cubierto
Visibility: 10 km
Cloud details: Cubierto 152 m
2021/05/08 00:00 LEST 080000Z 21007KT 170V250 9999 OVC005 12/11 Q1017 NOSIG
EBBR - Brussels International Airport, Belgium
Distance from station: O 1339km
Actualización: 08/05/2021 01:50
Despejado
Despejado
 Viento del SE
Viento: SE 9 km/h
Temperatura: 6°C
Wind Chill: 4°C
Rocío: 2°C
Humedad: 76%
Barómetro: 1017 hPa
Resumen: Despejado
Visibility: greater than 10 km
2021/05/07 23:50 EBBR 072350Z 14005KT CAVOK 06/02 Q1017 NOSIG